createdAt,value
2019-02-22T00:01:01.051Z,9.70
2019-02-22T00:03:30.315Z,9.70
2019-02-22T00:05:59.613Z,9.70
2019-02-22T00:08:29.161Z,9.80
2019-02-22T00:10:58.837Z,9.90
2019-02-22T00:13:28.394Z,9.80
2019-02-22T00:15:57.773Z,9.80
2019-02-22T00:18:27.038Z,9.70
2019-02-22T00:20:56.970Z,9.70
2019-02-22T00:23:26.325Z,9.80
2019-02-22T00:25:55.709Z,9.70
2019-02-22T00:28:25.387Z,9.70
2019-02-22T00:30:54.695Z,9.70
2019-02-22T00:33:24.751Z,9.80
2019-02-22T00:35:54.296Z,9.80
2019-02-22T00:38:23.546Z,9.80
2019-02-22T00:40:53.135Z,9.80
2019-02-22T00:43:22.422Z,9.80
2019-02-22T00:45:51.787Z,9.80
2019-02-22T00:48:21.435Z,9.90
2019-02-22T00:50:51.243Z,9.90
2019-02-22T00:53:21.145Z,9.90
2019-02-22T00:55:51.128Z,10.00
2019-02-22T00:58:20.483Z,10.00
2019-02-22T01:00:50.252Z,10.00
2019-02-22T01:03:20.532Z,9.90
2019-02-22T01:05:50.355Z,9.80
2019-02-22T01:08:20.638Z,9.90
2019-02-22T01:10:50.118Z,9.90
2019-02-22T01:13:19.487Z,9.90
2019-02-22T01:15:49.355Z,10.00
2019-02-22T01:18:18.913Z,9.90
2019-02-22T01:20:54.345Z,9.90
2019-02-22T01:23:19.192Z,9.90
2019-02-22T01:25:48.770Z,9.90
2019-02-22T01:28:18.034Z,9.90
2019-02-22T01:30:47.384Z,9.90
2019-02-22T01:33:17.107Z,9.90
2019-02-22T01:35:46.391Z,9.90
2019-02-22T01:38:16.354Z,9.90
2019-02-22T01:40:45.644Z,9.90
2019-02-22T01:43:14.984Z,9.90
2019-02-22T01:45:44.272Z,9.90
2019-02-22T01:48:13.833Z,9.90
2019-02-22T01:50:43.236Z,9.90
2019-02-22T01:53:13.131Z,9.80
2019-02-22T01:55:42.693Z,9.90
2019-02-22T01:58:11.982Z,9.90
2019-02-22T02:00:41.598Z,9.90
2019-02-22T02:03:11.350Z,9.90
2019-02-22T02:05:41.059Z,9.80
2019-02-22T02:08:10.915Z,9.90
2019-02-22T02:10:40.550Z,9.90
2019-02-22T02:13:09.875Z,9.90
2019-02-22T02:15:39.179Z,9.80
2019-02-22T02:18:08.470Z,9.80
2019-02-22T02:20:38.063Z,9.90
2019-02-22T02:23:07.356Z,9.90
2019-02-22T02:25:36.903Z,9.80
2019-02-22T02:28:06.189Z,9.80
2019-02-22T02:30:35.483Z,9.80
2019-02-22T02:33:04.772Z,9.90
2019-02-22T02:35:34.118Z,9.90
2019-02-22T02:38:03.503Z,9.90
2019-02-22T02:40:32.772Z,9.90
2019-02-22T02:43:02.059Z,9.80
2019-02-22T02:45:31.346Z,9.80
2019-02-22T02:48:00.991Z,9.80
2019-02-22T02:50:30.286Z,9.80
2019-02-22T02:52:59.646Z,9.80
2019-02-22T02:55:33.948Z,9.90
2019-02-22T02:58:03.334Z,9.90
2019-02-22T03:00:32.879Z,9.90
2019-02-22T03:03:02.251Z,9.90
2019-02-22T03:05:53.339Z,9.90
2019-02-22T03:08:24.628Z,9.80
2019-02-22T03:10:53.992Z,9.90
2019-02-22T03:13:23.416Z,9.90
2019-02-22T03:15:52.759Z,9.80
2019-02-22T03:18:22.138Z,9.90
2019-02-22T03:20:51.681Z,9.90
2019-02-22T03:23:21.046Z,9.90
2019-02-22T03:25:50.307Z,10.00
2019-02-22T03:28:19.897Z,10.00
2019-02-22T03:30:49.473Z,9.90
2019-02-22T03:33:18.779Z,9.90
2019-02-22T03:35:48.042Z,9.90
2019-02-22T03:38:17.350Z,10.00
2019-02-22T03:40:46.615Z,9.90
2019-02-22T03:43:16.237Z,9.90
2019-02-22T03:45:45.860Z,10.00
2019-02-22T03:48:15.152Z,10.00
2019-02-22T03:50:44.726Z,10.00
2019-02-22T03:53:29.620Z,10.00
2019-02-22T03:55:58.908Z,10.00
2019-02-22T03:58:28.530Z,10.00
2019-02-22T04:00:57.915Z,10.00
2019-02-22T04:03:27.279Z,10.00
2019-02-22T04:05:57.106Z,9.90
2019-02-22T04:08:26.971Z,9.90
2019-02-22T04:10:56.499Z,9.80
2019-02-22T04:13:26.120Z,9.80
2019-02-22T04:15:55.778Z,9.80
2019-02-22T04:18:25.140Z,9.70
2019-02-22T04:20:54.480Z,9.70
2019-02-22T04:23:24.137Z,9.70
2019-02-22T04:25:53.476Z,9.70
2019-02-22T04:28:22.868Z,9.70
2019-02-22T04:30:52.224Z,9.70
2019-02-22T04:33:21.505Z,9.60
2019-02-22T04:35:50.771Z,9.60
2019-02-22T04:38:20.719Z,9.60
2019-02-22T04:40:50.134Z,9.60
2019-02-22T04:43:19.421Z,9.50
2019-02-22T04:45:48.828Z,9.50
2019-02-22T04:48:18.126Z,9.40
2019-02-22T04:50:47.470Z,9.30
2019-02-22T04:53:17.174Z,9.30
2019-02-22T04:55:46.797Z,9.20
2019-02-22T04:58:16.186Z,9.20
2019-02-22T05:00:46.065Z,9.20
2019-02-22T05:03:15.765Z,9.10
2019-02-22T05:05:45.051Z,9.10
2019-02-22T05:08:14.693Z,9.10
2019-02-22T05:10:44.403Z,9.00
2019-02-22T05:13:13.792Z,9.00
2019-02-22T05:15:43.346Z,9.00
2019-02-22T05:18:12.926Z,9.00
2019-02-22T05:20:42.684Z,9.00
2019-02-22T05:23:12.268Z,9.00
2019-02-22T05:25:41.598Z,9.00
2019-02-22T05:28:10.968Z,9.00
2019-02-22T05:30:40.235Z,9.00
2019-02-22T05:33:09.893Z,9.00
2019-02-22T05:35:39.523Z,9.00
2019-02-22T05:38:08.899Z,8.90
2019-02-22T05:40:38.199Z,9.00
2019-02-22T05:43:07.463Z,9.00
2019-02-22T05:45:36.874Z,9.00
2019-02-22T05:48:06.138Z,8.90
2019-02-22T05:50:35.524Z,8.90
2019-02-22T05:53:04.907Z,8.80
2019-02-22T05:55:34.188Z,8.90
2019-02-22T05:58:03.475Z,8.80
2019-02-22T06:00:33.132Z,8.80
2019-02-22T06:03:02.398Z,8.70
2019-02-22T06:05:31.773Z,8.70
2019-02-22T06:08:01.472Z,8.80
2019-02-22T06:10:30.967Z,8.70
2019-02-22T06:13:00.255Z,8.70
2019-02-22T06:15:31.496Z,8.70
2019-02-22T06:18:00.908Z,8.70
2019-02-22T06:20:30.201Z,8.60
2019-02-22T06:22:59.471Z,8.60
2019-02-22T06:25:29.109Z,8.70
2019-02-22T06:27:58.665Z,8.70
2019-02-22T06:30:27.968Z,8.60
2019-02-22T06:32:57.339Z,8.60
2019-02-22T06:35:26.620Z,8.70
2019-02-22T06:37:55.889Z,8.70
2019-02-22T06:40:25.534Z,8.60
2019-02-22T06:42:55.273Z,8.60
2019-02-22T06:45:24.643Z,8.60
2019-02-22T06:47:53.920Z,8.60
2019-02-22T06:50:33.347Z,8.60
2019-02-22T06:52:54.433Z,8.60
2019-02-22T06:55:23.982Z,8.60
2019-02-22T06:57:53.329Z,8.60
2019-02-22T07:00:22.625Z,8.60
2019-02-22T07:02:51.978Z,8.60
2019-02-22T07:05:21.360Z,8.60
2019-02-22T07:07:50.660Z,8.60
2019-02-22T07:10:19.971Z,8.60
2019-02-22T07:12:59.064Z,8.60
2019-02-22T07:15:28.452Z,8.60
2019-02-22T07:17:57.745Z,8.60
2019-02-22T07:20:27.054Z,8.60
2019-02-22T07:22:56.395Z,8.60
2019-02-22T07:25:25.707Z,8.60
2019-02-22T07:27:55.106Z,8.60
2019-02-22T07:30:24.978Z,8.60
2019-02-22T07:32:54.300Z,8.70
2019-02-22T07:35:23.945Z,8.70
2019-02-22T07:37:53.476Z,8.70
2019-02-22T07:40:22.789Z,8.60
2019-02-22T07:42:52.684Z,8.70
2019-02-22T07:45:22.043Z,8.80
2019-02-22T07:47:51.310Z,8.80
2019-02-22T07:50:20.592Z,8.80
2019-02-22T07:52:50.171Z,8.80
2019-02-22T07:55:20.047Z,8.90
2019-02-22T07:57:49.321Z,8.90
2019-02-22T08:00:18.930Z,8.90
2019-02-22T08:02:48.248Z,9.00
2019-02-22T08:05:17.763Z,9.00
2019-02-22T08:07:47.057Z,9.00
2019-02-22T08:10:16.431Z,9.00
2019-02-22T08:12:45.827Z,9.00
2019-02-22T08:15:15.524Z,9.10
2019-02-22T08:17:44.849Z,9.20
2019-02-22T08:20:14.238Z,9.20
2019-02-22T08:22:44.180Z,9.30
2019-02-22T08:25:13.524Z,9.40
2019-02-22T08:27:53.143Z,9.50
2019-02-22T08:30:13.823Z,9.60
2019-02-22T08:32:43.756Z,9.60
2019-02-22T08:35:13.031Z,9.70
2019-02-22T08:37:42.425Z,9.80
2019-02-22T08:40:11.704Z,9.80
2019-02-22T08:42:41.001Z,9.90
2019-02-22T08:45:10.479Z,9.90
2019-02-22T08:47:40.071Z,10.00
2019-02-22T08:50:09.425Z,10.10
2019-02-22T08:52:38.822Z,10.00
2019-02-22T08:55:08.267Z,10.00
2019-02-22T08:57:37.661Z,10.10
2019-02-22T09:00:08.820Z,10.00
2019-02-22T09:02:38.197Z,10.10
2019-02-22T09:05:08.298Z,10.20
2019-02-22T09:07:38.041Z,10.20
2019-02-22T09:10:08.117Z,10.30
2019-02-22T09:12:37.807Z,10.20
2019-02-22T09:15:07.989Z,10.20
2019-02-22T09:17:37.479Z,10.20
2019-02-22T09:20:07.354Z,10.30
2019-02-22T09:22:36.700Z,10.40
2019-02-22T09:25:06.256Z,10.50
2019-02-22T09:27:35.875Z,10.60
2019-02-22T09:30:05.852Z,10.70
2019-02-22T09:32:35.514Z,10.70
2019-02-22T09:35:05.664Z,10.80
2019-02-22T09:37:35.027Z,10.90
2019-02-22T09:40:04.607Z,10.90
2019-02-22T09:42:34.007Z,10.90
2019-02-22T09:45:03.791Z,10.90
2019-02-22T09:47:33.383Z,11.00
2019-02-22T09:50:03.077Z,10.80
2019-02-22T09:52:32.739Z,10.80
2019-02-22T09:55:02.170Z,11.00
2019-02-22T09:57:31.547Z,11.20
2019-02-22T10:00:00.927Z,11.50
2019-02-22T10:02:30.331Z,11.50
2019-02-22T10:04:59.676Z,11.50
2019-02-22T10:07:29.462Z,11.40
2019-02-22T10:09:59.004Z,11.30
2019-02-22T10:12:28.404Z,11.30
2019-02-22T10:14:57.673Z,11.30
2019-02-22T10:17:27.329Z,11.30
2019-02-22T10:19:56.672Z,11.40
2019-02-22T10:22:26.414Z,11.70
2019-02-22T10:24:55.704Z,11.60
2019-02-22T10:27:25.097Z,11.70
2019-02-22T10:29:54.532Z,11.70
2019-02-22T10:32:24.168Z,11.80
2019-02-22T10:34:54.076Z,11.70
2019-02-22T10:37:23.366Z,11.70
2019-02-22T10:39:52.670Z,11.70
2019-02-22T10:42:22.630Z,11.60
2019-02-22T10:45:01.436Z,11.60
2019-02-22T10:47:30.840Z,11.70
2019-02-22T10:50:00.356Z,11.70
2019-02-22T10:52:29.755Z,11.70
2019-02-22T10:54:59.164Z,11.70
2019-02-22T10:57:28.454Z,11.60
2019-02-22T10:59:57.797Z,11.70
2019-02-22T11:02:27.448Z,11.90
2019-02-22T11:04:56.724Z,11.90
2019-02-22T11:07:26.371Z,12.10
2019-02-22T11:09:55.685Z,12.20
2019-02-22T11:12:25.936Z,12.10
2019-02-22T11:14:55.247Z,12.10
2019-02-22T11:17:24.882Z,12.10
2019-02-22T11:19:54.551Z,12.00
2019-02-22T11:22:23.823Z,11.90
2019-02-22T11:24:53.210Z,11.80
2019-02-22T11:27:22.676Z,11.80
2019-02-22T11:29:52.180Z,11.70
2019-02-22T11:32:21.464Z,11.60
2019-02-22T11:34:50.766Z,11.70
2019-02-22T11:37:20.028Z,11.60
2019-02-22T11:39:49.790Z,11.70
2019-02-22T11:42:19.131Z,11.80
2019-02-22T11:44:48.508Z,11.80
2019-02-22T11:47:17.819Z,11.90
2019-02-22T11:49:47.188Z,12.00
2019-02-22T11:52:16.551Z,12.10
2019-02-22T11:54:46.198Z,12.30
2019-02-22T11:57:16.370Z,12.50
2019-02-22T11:59:45.995Z,12.80
2019-02-22T12:02:15.389Z,13.00
2019-02-22T12:04:45.031Z,12.80
2019-02-22T12:07:14.387Z,12.60
2019-02-22T12:09:43.994Z,12.30
2019-02-22T12:12:13.390Z,12.40
2019-02-22T12:14:51.084Z,12.40
2019-02-22T12:17:14.215Z,12.30
2019-02-22T12:19:43.540Z,12.50
2019-02-22T12:22:13.123Z,12.60
2019-02-22T12:24:42.420Z,12.60
2019-02-22T12:27:14.111Z,12.60
2019-02-22T12:29:43.080Z,12.40
2019-02-22T12:32:12.422Z,12.50
2019-02-22T12:34:42.011Z,12.70
2019-02-22T12:37:11.307Z,12.90
2019-02-22T12:39:41.034Z,12.80
2019-02-22T12:42:10.379Z,12.80
2019-02-22T12:44:39.676Z,12.80
2019-02-22T12:47:09.238Z,12.90
2019-02-22T12:49:40.288Z,13.10
2019-02-22T12:52:09.959Z,13.00
2019-02-22T12:54:39.315Z,12.70
2019-02-22T12:57:08.952Z,12.70
2019-02-22T12:59:41.111Z,12.60
2019-02-22T13:02:10.825Z,12.30
2019-02-22T13:04:40.848Z,12.10
2019-02-22T13:07:10.124Z,12.00
2019-02-22T13:09:39.416Z,12.00
2019-02-22T13:12:13.989Z,12.10
2019-02-22T13:14:40.468Z,12.10
2019-02-22T13:17:10.027Z,12.10
2019-02-22T13:19:42.507Z,12.20
2019-02-22T13:22:12.372Z,12.30
2019-02-22T13:24:41.755Z,12.20
2019-02-22T13:27:12.099Z,12.40
2019-02-22T13:29:41.401Z,12.60
2019-02-22T13:32:10.743Z,12.50
2019-02-22T13:34:41.867Z,12.40
2019-02-22T13:37:11.817Z,12.60
2019-02-22T13:39:41.742Z,12.70
2019-02-22T13:42:11.118Z,12.70
2019-02-22T13:44:40.892Z,12.60
2019-02-22T13:47:10.624Z,12.60
2019-02-22T13:49:40.296Z,12.60
2019-02-22T13:52:09.957Z,12.50
2019-02-22T13:54:39.529Z,12.60
2019-02-22T13:57:08.938Z,12.50
2019-02-22T13:59:38.257Z,12.30
2019-02-22T14:02:08.073Z,12.30
2019-02-22T14:04:37.450Z,12.50
2019-02-22T14:07:07.419Z,12.50
2019-02-22T14:09:37.420Z,12.50
2019-02-22T14:12:07.019Z,12.50
2019-02-22T14:14:36.312Z,12.50
2019-02-22T14:17:05.742Z,12.20
2019-02-22T14:19:35.351Z,12.10
2019-02-22T14:22:04.688Z,12.00
2019-02-22T14:24:33.965Z,12.00
2019-02-22T14:27:03.702Z,11.90
2019-02-22T14:29:34.045Z,11.80
2019-02-22T14:32:04.145Z,11.80
2019-02-22T14:34:33.450Z,12.00
2019-02-22T14:37:02.861Z,12.10
2019-02-22T14:39:32.188Z,12.20
2019-02-22T14:42:01.874Z,12.30
2019-02-22T14:44:31.838Z,12.20
2019-02-22T14:47:01.523Z,12.30
2019-02-22T14:49:31.227Z,12.50
2019-02-22T14:52:00.678Z,12.70
2019-02-22T14:54:30.044Z,12.90
2019-02-22T14:56:59.759Z,12.80
2019-02-22T14:59:29.043Z,12.90
2019-02-22T15:01:59.562Z,12.90
2019-02-22T15:04:29.782Z,13.10
2019-02-22T15:06:59.157Z,13.30
2019-02-22T15:09:28.859Z,13.40
2019-02-22T15:11:58.588Z,13.40
2019-02-22T15:14:27.963Z,13.20
2019-02-22T15:17:19.321Z,13.20
2019-02-22T15:19:48.705Z,13.10
2019-02-22T15:22:17.997Z,13.10
2019-02-22T15:24:47.299Z,12.90
2019-02-22T15:27:16.588Z,12.70
2019-02-22T15:29:45.960Z,12.60
2019-02-22T15:32:15.340Z,12.60
2019-02-22T15:34:45.041Z,12.50
2019-02-22T15:37:14.624Z,12.50
2019-02-22T15:39:43.988Z,12.40
2019-02-22T15:42:13.633Z,12.40
2019-02-22T15:44:42.907Z,12.30
2019-02-22T15:47:12.624Z,12.20
2019-02-22T15:49:41.958Z,12.10
2019-02-22T15:52:11.628Z,12.10
2019-02-22T15:54:41.265Z,12.00
2019-02-22T15:57:10.642Z,11.90
2019-02-22T15:59:43.067Z,11.90
2019-02-22T16:02:12.992Z,11.90
2019-02-22T16:05:01.308Z,11.80
2019-02-22T16:07:31.304Z,11.80
2019-02-22T16:10:00.673Z,11.80
2019-02-22T16:12:30.344Z,11.80
2019-02-22T16:14:59.906Z,11.80
2019-02-22T16:17:29.200Z,11.80
2019-02-22T16:19:58.560Z,11.70
2019-02-22T16:22:28.215Z,11.70
2019-02-22T16:24:57.824Z,11.70
2019-02-22T16:27:27.231Z,11.60
2019-02-22T16:29:56.590Z,11.60
2019-02-22T16:32:27.669Z,11.60
2019-02-22T16:34:57.042Z,11.50
2019-02-22T16:37:26.368Z,11.50
2019-02-22T16:39:55.655Z,11.40
2019-02-22T16:42:24.967Z,11.30
2019-02-22T16:44:54.521Z,11.20
2019-02-22T16:47:23.851Z,11.10
2019-02-22T16:49:53.488Z,11.10
2019-02-22T16:52:22.872Z,11.10
2019-02-22T16:54:52.233Z,11.00
2019-02-22T16:57:21.860Z,10.90
2019-02-22T16:59:51.147Z,10.80
2019-02-22T17:02:20.796Z,10.60
2019-02-22T17:04:50.069Z,10.60
2019-02-22T17:07:19.429Z,10.50
2019-02-22T17:09:49.368Z,10.40
2019-02-22T17:12:19.034Z,10.40
2019-02-22T17:14:48.611Z,10.30
2019-02-22T17:17:17.887Z,10.30
2019-02-22T17:19:47.291Z,10.20
2019-02-22T17:22:16.643Z,10.10
2019-02-22T17:24:46.331Z,10.10
2019-02-22T17:27:15.885Z,10.10
2019-02-22T17:29:45.540Z,10.00
2019-02-22T17:32:14.891Z,10.00
2019-02-22T17:34:45.559Z,9.90
2019-02-22T17:37:15.083Z,9.80
2019-02-22T17:39:46.012Z,9.70
2019-02-22T17:42:15.937Z,9.60
2019-02-22T17:44:45.614Z,9.60
2019-02-22T17:47:15.281Z,9.50
2019-02-22T17:49:44.873Z,9.40
2019-02-22T17:52:14.424Z,9.30
2019-02-22T17:54:43.967Z,9.30
2019-02-22T17:57:13.244Z,9.20
2019-02-22T17:59:42.532Z,9.20
2019-02-22T18:02:12.230Z,9.10
2019-02-22T18:04:41.542Z,9.10
2019-02-22T18:07:10.811Z,9.00
2019-02-22T18:09:40.111Z,8.90
2019-02-22T18:12:09.684Z,9.00
2019-02-22T18:14:39.049Z,8.90
2019-02-22T18:17:08.897Z,8.90
2019-02-22T18:19:38.152Z,9.00
2019-02-22T18:22:07.459Z,9.00
2019-02-22T18:24:36.829Z,9.00
2019-02-22T18:27:06.205Z,8.80
2019-02-22T18:29:35.968Z,8.70
2019-02-22T18:32:05.323Z,8.80
2019-02-22T18:34:34.971Z,8.70
2019-02-22T18:37:04.424Z,8.70
2019-02-22T18:39:33.797Z,8.60
2019-02-22T18:42:03.411Z,8.50
2019-02-22T18:44:32.796Z,8.50
2019-02-22T18:47:02.063Z,8.50
2019-02-22T18:49:31.639Z,8.40
2019-02-22T18:52:00.907Z,8.30
2019-02-22T18:54:30.287Z,8.20
2019-02-22T18:56:59.640Z,8.20
2019-02-22T18:59:29.208Z,8.10
2019-02-22T19:01:59.033Z,8.00
2019-02-22T19:04:28.676Z,7.90
2019-02-22T19:06:58.023Z,7.80
2019-02-22T19:09:27.604Z,7.70
2019-02-22T19:11:57.160Z,7.70
2019-02-22T19:14:26.532Z,7.60
2019-02-22T19:16:56.143Z,7.50
2019-02-22T19:19:25.784Z,7.60
2019-02-22T19:21:55.060Z,7.50
2019-02-22T19:24:24.447Z,7.40
2019-02-22T19:26:53.848Z,7.50
2019-02-22T19:29:23.220Z,7.50
2019-02-22T19:31:52.596Z,7.40
2019-02-22T19:34:21.891Z,7.40
2019-02-22T19:36:51.244Z,7.40
2019-02-22T19:39:20.888Z,7.40
2019-02-22T19:41:50.228Z,7.20
2019-02-22T19:44:19.528Z,7.20
2019-02-22T19:46:49.160Z,7.20
2019-02-22T19:49:18.730Z,7.10
2019-02-22T19:51:48.190Z,7.10
2019-02-22T19:54:17.547Z,7.10
2019-02-22T19:56:46.815Z,7.10
2019-02-22T19:59:16.115Z,7.20
2019-02-22T20:01:45.410Z,7.30
2019-02-22T20:04:14.991Z,7.20
2019-02-22T20:06:44.540Z,7.00
2019-02-22T20:09:14.116Z,6.80
2019-02-22T20:11:44.847Z,6.70
2019-02-22T20:14:14.219Z,6.70
2019-02-22T20:16:43.563Z,6.60
2019-02-22T20:19:12.937Z,6.80
2019-02-22T20:21:42.611Z,6.80
2019-02-22T20:24:11.930Z,6.90
2019-02-22T20:26:41.296Z,7.10
2019-02-22T20:29:11.112Z,7.30
2019-02-22T20:31:40.753Z,7.30
2019-02-22T20:34:10.058Z,7.50
2019-02-22T20:36:39.696Z,7.50
2019-02-22T20:39:09.204Z,7.30
2019-02-22T20:41:38.827Z,7.30
2019-02-22T20:44:08.525Z,7.40
2019-02-22T20:46:38.674Z,7.50
2019-02-22T20:49:08.049Z,7.50
2019-02-22T20:51:37.351Z,7.50
2019-02-22T20:54:06.785Z,7.50
2019-02-22T20:56:36.353Z,7.30
2019-02-22T20:59:05.712Z,7.20
2019-02-22T21:01:34.983Z,7.40
2019-02-22T21:04:04.343Z,7.10
2019-02-22T21:06:33.628Z,7.00
2019-02-22T21:09:02.992Z,7.10
2019-02-22T21:11:32.405Z,7.00
2019-02-22T21:14:01.835Z,6.90
2019-02-22T21:16:31.471Z,6.90
2019-02-22T21:19:01.133Z,6.80
2019-02-22T21:21:30.498Z,6.90
2019-02-22T21:23:59.887Z,6.90
2019-02-22T21:26:29.245Z,7.00
2019-02-22T21:28:58.604Z,7.00
2019-02-22T21:31:27.880Z,6.90
2019-02-22T21:33:57.259Z,7.00
2019-02-22T21:36:26.673Z,7.10
2019-02-22T21:38:55.933Z,7.10
2019-02-22T21:41:25.504Z,7.10
2019-02-22T21:43:55.284Z,7.00
2019-02-22T21:46:24.667Z,7.00
2019-02-22T21:48:54.311Z,7.00
2019-02-22T21:51:23.687Z,7.00
2019-02-22T21:53:53.327Z,6.90
2019-02-22T21:56:22.978Z,6.80
2019-02-22T21:58:52.876Z,6.80
2019-02-22T22:01:22.584Z,6.70
2019-02-22T22:03:52.210Z,6.70
2019-02-22T22:06:21.519Z,6.70
2019-02-22T22:08:51.065Z,6.70
2019-02-22T22:11:20.384Z,6.80
2019-02-22T22:13:49.761Z,6.70
2019-02-22T22:16:19.439Z,6.70
2019-02-22T22:18:48.808Z,6.70
2019-02-22T22:21:18.096Z,6.70
2019-02-22T22:23:47.740Z,6.80
2019-02-22T22:26:17.114Z,6.80
2019-02-22T22:28:46.379Z,6.70
2019-02-22T22:31:15.672Z,6.70
2019-02-22T22:33:45.222Z,6.60
2019-02-22T22:36:15.266Z,6.60
2019-02-22T22:38:44.821Z,6.60
2019-02-22T22:41:14.187Z,6.50
2019-02-22T22:43:43.827Z,6.40
2019-02-22T22:46:13.599Z,6.40
2019-02-22T22:48:50.435Z,6.30
2019-02-22T22:51:14.156Z,6.30
2019-02-22T22:53:43.511Z,6.30
2019-02-22T22:56:12.804Z,6.20
2019-02-22T22:58:42.147Z,6.20
2019-02-22T23:01:22.045Z,6.20
2019-02-22T23:03:51.662Z,6.10
2019-02-22T23:06:20.978Z,6.00
2019-02-22T23:08:50.264Z,5.80
2019-02-22T23:11:19.568Z,5.70
2019-02-22T23:13:49.209Z,5.60
2019-02-22T23:16:18.559Z,5.70
2019-02-22T23:18:48.115Z,5.70
2019-02-22T23:21:17.421Z,5.70
2019-02-22T23:23:46.686Z,5.70
2019-02-22T23:26:16.051Z,5.80
2019-02-22T23:28:45.319Z,5.80
2019-02-22T23:31:14.783Z,5.80
2019-02-22T23:33:44.068Z,5.80
2019-02-22T23:36:13.379Z,5.70
2019-02-22T23:38:42.721Z,5.70
2019-02-22T23:41:12.096Z,5.70
2019-02-22T23:43:41.704Z,5.70
2019-02-22T23:46:11.003Z,5.60
2019-02-22T23:48:40.366Z,5.50
2019-02-22T23:51:09.751Z,5.50
2019-02-22T23:53:39.287Z,5.40
2019-02-22T23:56:08.938Z,5.50
2019-02-22T23:58:38.472Z,5.40
